EmailTwitter


Surface observations / United Kingdom / EGLL (03772)

Regions: Quebec | Canada | USA | Europe | France | UK | Elsewhere
Station
Display
Info & Location for EGLL (03772) | Help decoding METAR

Weather Conditions observed on 2019/01/16 at 20:50 UTC at LONDON/HEATHROW, UK (EGLL)

Temperature: 5.0 Celsius.

Dewpoint: 4.0 Celsius.

Relative Humidity: 93%

Windchill Factor: 2.

Winds: Southwest at 15 km/h or 8 knots.

Mean Sea level Pressure: 100.30 kilopascals.

Horizontal visibility: 6.21 statute miles or 9.94 kilometers.

Coded METAR:

EGLL 162050Z AUTO 24008KT 9999 NCD 05/04 Q1003 NOSIG=